createdAt,value
2018-03-07T00:01:00.532Z,3.00
2018-03-07T00:03:29.786Z,3.00
2018-03-07T00:05:58.475Z,2.90
2018-03-07T00:08:26.615Z,3.00
2018-03-07T00:10:54.726Z,3.00
2018-03-07T00:13:23.355Z,3.00
2018-03-07T00:15:52.227Z,2.20
2018-03-07T00:18:20.358Z,2.20
2018-03-07T00:20:48.466Z,2.30
2018-03-07T00:23:16.966Z,2.40
2018-03-07T00:25:45.842Z,2.60
2018-03-07T00:28:13.987Z,2.60
2018-03-07T00:30:42.094Z,2.50
2018-03-07T00:33:10.227Z,2.70
2018-03-07T00:35:38.350Z,2.70
2018-03-07T00:38:07.243Z,2.70
2018-03-07T00:40:36.119Z,2.60
2018-03-07T00:43:04.246Z,2.60
2018-03-07T00:45:32.365Z,2.40
2018-03-07T00:48:01.358Z,2.30
2018-03-07T00:50:29.460Z,2.50
2018-03-07T00:52:57.599Z,2.80
2018-03-07T00:55:26.626Z,3.00
2018-03-07T00:57:54.758Z,2.70
2018-03-07T01:00:22.874Z,2.60
2018-03-07T01:02:51.455Z,2.40
2018-03-07T01:05:20.337Z,2.50
2018-03-07T01:07:48.530Z,2.50
2018-03-07T01:10:16.642Z,2.50
2018-03-07T01:12:44.766Z,2.60
2018-03-07T01:15:12.875Z,2.50
2018-03-07T01:17:41.011Z,2.20
2018-03-07T01:20:11.621Z,2.00
2018-03-07T01:22:40.525Z,2.10
2018-03-07T01:25:09.853Z,2.30
2018-03-07T01:27:37.982Z,2.30
2018-03-07T01:30:06.087Z,2.40
2018-03-07T01:32:34.218Z,2.40
2018-03-07T01:35:02.341Z,2.50
2018-03-07T01:37:30.491Z,2.50
2018-03-07T01:39:59.374Z,2.50
2018-03-07T01:42:29.505Z,2.50
2018-03-07T01:44:58.377Z,2.50
2018-03-07T01:47:27.994Z,2.60
2018-03-07T01:49:56.870Z,2.60
2018-03-07T01:52:25.007Z,2.60
2018-03-07T01:54:53.115Z,2.60
2018-03-07T01:57:21.252Z,2.50
2018-03-07T01:59:49.355Z,2.60
2018-03-07T02:02:17.872Z,2.60
2018-03-07T02:04:46.002Z,2.70
2018-03-07T02:07:14.115Z,2.70
2018-03-07T02:09:42.645Z,2.60
2018-03-07T02:12:10.752Z,2.60
2018-03-07T02:14:38.882Z,2.60
2018-03-07T02:17:06.990Z,2.60
2018-03-07T02:19:35.126Z,2.60
2018-03-07T02:22:03.226Z,2.70
2018-03-07T02:24:31.361Z,2.70
2018-03-07T02:26:59.463Z,2.60
2018-03-07T02:29:27.676Z,2.70
2018-03-07T02:31:56.555Z,2.60
2018-03-07T02:34:24.683Z,2.60
2018-03-07T02:36:52.806Z,2.70
2018-03-07T02:39:21.706Z,2.70
2018-03-07T02:41:50.667Z,2.60
2018-03-07T02:44:18.807Z,2.60
2018-03-07T02:46:46.910Z,2.50
2018-03-07T02:49:15.831Z,2.20
2018-03-07T02:51:44.726Z,2.10
2018-03-07T02:54:13.624Z,2.30
2018-03-07T02:56:43.093Z,2.30
2018-03-07T02:59:11.223Z,2.30
2018-03-07T03:01:39.335Z,2.30
2018-03-07T03:04:07.477Z,2.30
2018-03-07T03:06:35.577Z,2.20
2018-03-07T03:09:03.767Z,2.20
2018-03-07T03:11:31.922Z,2.10
2018-03-07T03:14:00.021Z,2.20
2018-03-07T03:16:28.885Z,2.20
2018-03-07T03:18:57.035Z,2.20
2018-03-07T03:21:25.162Z,2.30
2018-03-07T03:23:54.055Z,2.30
2018-03-07T03:26:22.948Z,2.30
2018-03-07T03:28:52.568Z,2.20
2018-03-07T03:31:20.694Z,2.20
2018-03-07T03:33:49.302Z,2.10
2018-03-07T03:36:17.425Z,2.10
2018-03-07T03:38:45.577Z,2.00
2018-03-07T03:41:13.692Z,2.10
2018-03-07T03:43:41.836Z,2.20
2018-03-07T03:46:09.957Z,2.20
2018-03-07T03:48:38.104Z,2.20
2018-03-07T03:51:06.236Z,2.10
2018-03-07T03:53:35.133Z,2.10
2018-03-07T03:56:03.283Z,2.10
2018-03-07T03:58:32.205Z,2.00
2018-03-07T04:01:00.336Z,2.00
2018-03-07T04:03:30.886Z,2.10
2018-03-07T04:05:59.781Z,2.10
2018-03-07T04:08:28.689Z,2.00
2018-03-07T04:13:30.353Z,2.00
2018-03-07T04:15:58.464Z,2.10
2018-03-07T04:18:27.133Z,2.10
2018-03-07T04:20:55.261Z,2.30
2018-03-07T04:23:23.406Z,2.30
2018-03-07T04:25:52.161Z,2.30
2018-03-07T04:28:20.299Z,2.30
2018-03-07T04:30:49.220Z,2.40
2018-03-07T04:33:18.623Z,2.40
2018-03-07T04:35:48.918Z,2.40
2018-03-07T04:38:17.829Z,2.50
2018-03-07T04:40:45.949Z,2.50
2018-03-07T04:43:14.985Z,2.50
2018-03-07T04:45:43.869Z,2.50
2018-03-07T04:48:12.784Z,2.50
2018-03-07T04:50:40.949Z,2.50
2018-03-07T04:53:09.073Z,2.60
2018-03-07T04:55:37.220Z,2.40
2018-03-07T04:58:05.342Z,2.20
2018-03-07T05:00:33.487Z,2.20
2018-03-07T05:03:03.581Z,2.30
2018-03-07T05:05:31.726Z,2.30
2018-03-07T05:08:00.609Z,2.50
2018-03-07T05:10:32.062Z,2.60
2018-03-07T05:13:00.212Z,2.60
2018-03-07T05:15:28.761Z,2.60
2018-03-07T05:17:56.909Z,2.80
2018-03-07T05:20:25.062Z,3.00
2018-03-07T05:22:53.947Z,2.80
2018-03-07T05:25:22.089Z,2.80
2018-03-07T05:27:50.217Z,2.90
2018-03-07T05:30:18.363Z,2.80
2018-03-07T05:32:46.493Z,2.80
2018-03-07T05:35:15.055Z,2.80
2018-03-07T05:37:43.177Z,2.80
2018-03-07T05:40:11.329Z,2.80
2018-03-07T05:42:39.451Z,2.80
2018-03-07T05:45:08.061Z,2.80
2018-03-07T05:47:36.184Z,2.90
2018-03-07T05:50:07.101Z,2.90
2018-03-07T05:52:37.281Z,2.90
2018-03-07T05:55:06.184Z,2.90
2018-03-07T05:57:34.296Z,2.90
2018-03-07T06:00:02.487Z,2.90
2018-03-07T06:02:37.302Z,2.90
2018-03-07T06:05:05.438Z,2.80
2018-03-07T06:07:33.565Z,2.80
2018-03-07T06:10:01.741Z,2.70
2018-03-07T06:12:29.868Z,2.70
2018-03-07T06:14:58.020Z,2.60
2018-03-07T06:17:27.396Z,2.80
2018-03-07T06:19:55.536Z,2.90
2018-03-07T06:22:23.657Z,2.80
2018-03-07T06:24:52.552Z,2.70
2018-03-07T06:27:21.368Z,2.70
2018-03-07T06:29:49.512Z,2.90
2018-03-07T06:32:18.404Z,2.60
2018-03-07T06:34:47.098Z,2.60
2018-03-07T06:37:15.232Z,2.60
2018-03-07T06:39:43.369Z,2.40
2018-03-07T06:42:11.511Z,2.50
2018-03-07T06:44:40.420Z,2.40
2018-03-07T06:47:09.387Z,2.40
2018-03-07T06:49:38.303Z,2.50
2018-03-07T06:52:06.436Z,2.50
2018-03-07T06:54:34.573Z,2.70
2018-03-07T06:57:03.107Z,2.60
2018-03-07T06:59:32.028Z,2.90
2018-03-07T07:02:00.156Z,2.90
2018-03-07T07:04:28.297Z,3.20
2018-03-07T07:06:56.425Z,3.30
2018-03-07T07:09:25.123Z,3.40
2018-03-07T07:11:53.401Z,3.60
2018-03-07T07:14:21.548Z,3.60
2018-03-07T07:16:50.910Z,3.70
2018-03-07T07:19:19.048Z,3.60
2018-03-07T07:21:48.102Z,3.80
2018-03-07T07:24:16.252Z,3.80
2018-03-07T07:26:44.377Z,3.90
2018-03-07T07:29:13.933Z,3.70
2018-03-07T07:31:42.797Z,3.70
2018-03-07T07:34:12.272Z,3.90
2018-03-07T07:36:41.055Z,3.90
2018-03-07T07:39:09.172Z,3.50
2018-03-07T07:41:37.322Z,3.50
2018-03-07T07:44:06.213Z,3.90
2018-03-07T07:46:35.133Z,4.10
2018-03-07T07:49:03.286Z,4.10
2018-03-07T07:51:31.454Z,4.20
2018-03-07T07:54:00.342Z,4.30
2018-03-07T07:56:28.501Z,4.30
2018-03-07T07:58:57.391Z,4.50
2018-03-07T08:01:25.536Z,4.40
2018-03-07T08:03:53.657Z,4.50
2018-03-07T08:06:21.805Z,4.30
2018-03-07T08:08:50.706Z,4.20
2018-03-07T08:11:19.617Z,4.50
2018-03-07T08:13:47.761Z,4.50
2018-03-07T08:16:16.957Z,4.60
2018-03-07T08:18:45.077Z,4.70
2018-03-07T08:21:13.268Z,4.70
2018-03-07T08:23:41.397Z,4.80
2018-03-07T08:26:11.129Z,5.00
2018-03-07T08:28:39.256Z,5.00
2018-03-07T08:31:07.406Z,4.90
2018-03-07T08:33:35.541Z,4.90
2018-03-07T08:36:04.569Z,5.00
2018-03-07T08:38:32.689Z,5.10
2018-03-07T08:41:01.609Z,5.20
2018-03-07T08:43:29.770Z,5.10
2018-03-07T08:45:57.945Z,5.20
2018-03-07T08:48:27.227Z,5.10
2018-03-07T08:50:56.140Z,5.50
2018-03-07T08:53:24.257Z,5.50
2018-03-07T08:55:52.397Z,5.60
2018-03-07T08:58:20.508Z,5.60
2018-03-07T09:00:48.651Z,5.60
2018-03-07T09:03:16.774Z,5.40
2018-03-07T09:05:45.702Z,5.40
2018-03-07T09:08:13.828Z,5.40
2018-03-07T09:10:41.973Z,5.50
2018-03-07T09:13:10.865Z,5.40
2018-03-07T09:15:39.016Z,5.40
2018-03-07T09:18:07.133Z,5.50
2018-03-07T09:20:35.785Z,5.60
2018-03-07T09:23:03.914Z,5.50
2018-03-07T09:25:32.077Z,5.50
2018-03-07T09:28:00.457Z,5.50
2018-03-07T09:30:28.601Z,5.70
2018-03-07T09:32:56.721Z,5.90
2018-03-07T09:35:25.633Z,5.90
2018-03-07T09:37:53.757Z,5.90
2018-03-07T09:40:21.905Z,5.90
2018-03-07T09:42:50.126Z,5.60
2018-03-07T09:45:19.037Z,5.80
2018-03-07T09:47:47.157Z,5.80
2018-03-07T09:50:16.720Z,6.00
2018-03-07T09:52:45.098Z,6.00
2018-03-07T09:55:13.244Z,6.10
2018-03-07T09:57:41.370Z,6.20
2018-03-07T10:00:09.521Z,6.20
2018-03-07T10:02:37.661Z,6.10
2018-03-07T10:05:05.808Z,5.80
2018-03-07T10:07:33.945Z,5.80
2018-03-07T10:10:02.073Z,5.90
2018-03-07T10:12:30.729Z,6.00
2018-03-07T10:14:58.852Z,6.00
2018-03-07T10:17:27.766Z,6.40
2018-03-07T10:19:55.903Z,6.40
2018-03-07T10:22:24.054Z,6.40
2018-03-07T10:24:52.185Z,6.60
2018-03-07T10:27:20.338Z,6.70
2018-03-07T10:29:49.248Z,6.70
2018-03-07T10:32:17.401Z,6.70
2018-03-07T10:34:46.294Z,6.90
2018-03-07T10:37:15.202Z,7.00
2018-03-07T10:39:43.328Z,6.90
2018-03-07T10:42:11.649Z,7.00
2018-03-07T10:44:39.770Z,7.10
2018-03-07T10:47:07.932Z,7.20
2018-03-07T10:49:36.076Z,7.20
2018-03-07T10:52:06.053Z,7.40
2018-03-07T10:54:34.179Z,7.60
2018-03-07T10:57:02.337Z,7.60
2018-03-07T10:59:32.126Z,7.70
2018-03-07T11:02:00.740Z,7.70
2018-03-07T11:04:28.871Z,8.00
2018-03-07T11:06:57.016Z,8.20
2018-03-07T11:09:25.193Z,8.30
2018-03-07T11:11:53.334Z,8.50
2018-03-07T11:14:21.466Z,8.50
2018-03-07T11:16:49.622Z,8.70
2018-03-07T11:19:17.773Z,8.90
2018-03-07T11:21:45.918Z,9.40
2018-03-07T11:24:14.053Z,9.60
2018-03-07T11:26:42.201Z,9.90
2018-03-07T11:29:10.330Z,10.40
2018-03-07T11:31:39.750Z,10.90
2018-03-07T11:34:07.882Z,10.80
2018-03-07T11:36:36.032Z,10.90
2018-03-07T11:39:04.210Z,10.90
2018-03-07T11:41:32.374Z,11.00
2018-03-07T11:44:00.505Z,10.70
2018-03-07T11:46:28.669Z,10.60
2018-03-07T11:48:57.557Z,10.50
2018-03-07T11:51:26.478Z,10.30
2018-03-07T11:53:54.616Z,10.30
2018-03-07T11:56:23.528Z,10.60
2018-03-07T11:58:51.666Z,10.60
2018-03-07T12:01:20.625Z,10.60
2018-03-07T12:03:48.772Z,10.50
2018-03-07T12:06:16.921Z,10.40
2018-03-07T12:08:45.812Z,10.40
2018-03-07T12:11:14.730Z,10.10
2018-03-07T12:13:43.313Z,10.10
2018-03-07T12:16:11.469Z,10.20
2018-03-07T12:18:40.369Z,9.70
2018-03-07T12:21:08.508Z,9.70
2018-03-07T12:23:36.645Z,10.10
2018-03-07T12:26:04.782Z,10.20
2018-03-07T12:28:33.694Z,10.70
2018-03-07T12:31:01.831Z,10.70
2018-03-07T12:33:29.973Z,10.40
2018-03-07T12:35:59.033Z,10.50
2018-03-07T12:38:27.206Z,10.70
2018-03-07T12:40:55.330Z,10.30
2018-03-07T12:43:23.482Z,10.30
2018-03-07T12:45:51.605Z,10.30
2018-03-07T12:48:20.526Z,10.10
2018-03-07T12:50:49.841Z,10.10
2018-03-07T12:53:17.989Z,10.30
2018-03-07T12:55:46.149Z,10.20
2018-03-07T12:58:15.065Z,10.40
2018-03-07T13:00:43.193Z,10.40
2018-03-07T13:03:12.118Z,10.30
2018-03-07T13:05:40.256Z,10.30
2018-03-07T13:08:08.405Z,10.60
2018-03-07T13:10:36.537Z,10.50
2018-03-07T13:13:04.716Z,10.50
2018-03-07T13:15:32.847Z,10.60
2018-03-07T13:18:01.000Z,10.50
2018-03-07T13:20:29.135Z,10.70
2018-03-07T13:22:57.286Z,10.70
2018-03-07T13:25:26.623Z,10.40
2018-03-07T13:27:54.810Z,10.40
2018-03-07T13:30:22.942Z,10.30
2018-03-07T13:32:51.469Z,10.20
2018-03-07T13:35:21.831Z,10.00
2018-03-07T13:37:50.757Z,10.20
2018-03-07T13:40:18.888Z,10.10
2018-03-07T13:42:47.042Z,10.40
2018-03-07T13:45:15.167Z,10.40
2018-03-07T13:47:43.315Z,10.50
2018-03-07T13:50:11.453Z,10.40
2018-03-07T13:52:39.602Z,10.40
2018-03-07T13:55:08.581Z,10.50
2018-03-07T13:57:36.734Z,10.40
2018-03-07T14:00:04.854Z,10.50
2018-03-07T14:02:37.521Z,10.40
2018-03-07T14:05:06.897Z,10.40
2018-03-07T14:07:35.813Z,10.10
2018-03-07T14:10:03.942Z,10.10
2018-03-07T14:12:32.097Z,10.10
2018-03-07T14:15:00.225Z,10.00
2018-03-07T14:17:28.377Z,10.00
2018-03-07T14:19:57.285Z,10.00
2018-03-07T14:22:26.213Z,10.00
2018-03-07T14:24:54.337Z,10.00
2018-03-07T14:29:56.730Z,9.90
2018-03-07T14:32:25.644Z,9.70
2018-03-07T14:34:53.762Z,9.70
2018-03-07T14:37:21.914Z,9.70
2018-03-07T14:39:50.028Z,9.70
2018-03-07T14:42:18.181Z,9.70
2018-03-07T14:44:46.302Z,9.50
2018-03-07T14:47:15.209Z,9.50
2018-03-07T14:49:43.340Z,9.50
2018-03-07T14:52:11.857Z,9.40
2018-03-07T14:54:40.732Z,9.10
2018-03-07T14:57:09.622Z,9.20
2018-03-07T14:59:38.605Z,9.30
2018-03-07T15:02:06.729Z,9.30
2018-03-07T15:04:34.868Z,9.30
2018-03-07T15:07:03.773Z,9.20
2018-03-07T15:09:36.313Z,9.20
2018-03-07T15:12:04.441Z,9.20
2018-03-07T15:14:32.586Z,9.20
2018-03-07T15:17:01.478Z,9.10
2018-03-07T15:19:30.388Z,9.20
2018-03-07T15:21:58.533Z,9.20
2018-03-07T15:24:27.448Z,9.10
2018-03-07T15:26:55.598Z,9.00
2018-03-07T15:29:23.739Z,9.00
2018-03-07T15:31:51.853Z,8.80
2018-03-07T15:34:20.012Z,8.70
2018-03-07T15:36:48.123Z,8.60
2018-03-07T15:39:16.277Z,8.50
2018-03-07T15:41:45.168Z,8.30
2018-03-07T15:44:14.083Z,8.20
2018-03-07T15:46:42.195Z,8.20
2018-03-07T15:49:10.331Z,8.30
2018-03-07T15:51:38.453Z,8.30
2018-03-07T15:54:06.681Z,8.20
2018-03-07T15:56:34.788Z,8.20
2018-03-07T15:59:02.940Z,8.10
2018-03-07T16:01:32.633Z,8.00
2018-03-07T16:04:00.784Z,7.90
2018-03-07T16:06:29.697Z,7.80
2018-03-07T16:08:57.849Z,7.70
2018-03-07T16:11:26.740Z,7.80
2018-03-07T16:13:55.669Z,7.80
2018-03-07T16:16:23.791Z,7.80
2018-03-07T16:18:51.924Z,8.10
2018-03-07T16:21:20.080Z,7.70
2018-03-07T16:23:48.221Z,7.50
2018-03-07T16:26:17.137Z,7.40
2018-03-07T16:28:46.054Z,7.50
2018-03-07T16:31:14.618Z,7.40
2018-03-07T16:33:44.735Z,7.40
2018-03-07T16:36:15.021Z,7.40
2018-03-07T16:38:43.246Z,7.40
2018-03-07T16:41:11.402Z,7.40
2018-03-07T16:43:40.110Z,7.40
2018-03-07T16:46:08.284Z,7.30
2018-03-07T16:48:36.466Z,7.30
2018-03-07T16:51:04.633Z,7.20
2018-03-07T16:53:32.819Z,7.10
2018-03-07T16:56:01.674Z,7.10
2018-03-07T16:58:29.973Z,7.10
2018-03-07T17:00:58.150Z,7.10
2018-03-07T17:03:27.165Z,7.10
2018-03-07T17:05:55.792Z,7.10
2018-03-07T17:08:24.739Z,7.00
2018-03-07T17:10:53.746Z,7.00
2018-03-07T17:13:21.928Z,6.90
2018-03-07T17:15:50.106Z,7.00
2018-03-07T17:18:18.299Z,6.80
2018-03-07T17:20:47.277Z,7.00
2018-03-07T17:23:15.468Z,6.90
2018-03-07T17:25:43.743Z,7.00
2018-03-07T17:28:12.707Z,6.70
2018-03-07T17:30:41.466Z,6.70
2018-03-07T17:33:10.557Z,6.70
2018-03-07T17:35:38.739Z,6.80
2018-03-07T17:38:08.958Z,6.90
2018-03-07T17:40:37.120Z,6.90
2018-03-07T17:43:06.034Z,6.80
2018-03-07T17:45:35.530Z,6.80
2018-03-07T17:48:03.748Z,6.70
2018-03-07T17:50:31.939Z,6.90
2018-03-07T17:53:00.866Z,6.80
2018-03-07T17:55:29.028Z,6.80
2018-03-07T17:57:57.843Z,6.80
2018-03-07T18:00:26.104Z,6.80
2018-03-07T18:02:54.270Z,6.60
2018-03-07T18:05:22.404Z,6.70
2018-03-07T18:07:50.873Z,6.50
2018-03-07T18:10:19.054Z,6.50
2018-03-07T18:12:47.839Z,6.50
2018-03-07T18:15:16.269Z,6.50
2018-03-07T18:17:44.496Z,6.50
2018-03-07T18:20:13.418Z,6.40
2018-03-07T18:22:42.485Z,6.60
2018-03-07T18:25:11.432Z,6.50
2018-03-07T18:27:39.551Z,6.50
2018-03-07T18:30:08.805Z,6.50
2018-03-07T18:32:36.950Z,6.60
2018-03-07T18:35:05.114Z,6.40
2018-03-07T18:37:33.257Z,6.50
2018-03-07T18:40:01.426Z,6.40
2018-03-07T18:42:29.614Z,6.40
2018-03-07T18:44:58.576Z,6.40
2018-03-07T18:47:27.962Z,6.40
2018-03-07T18:49:56.108Z,6.50
2018-03-07T18:52:24.234Z,6.30
2018-03-07T18:54:52.378Z,6.30
2018-03-07T18:57:20.505Z,6.20
2018-03-07T18:59:49.419Z,6.20
2018-03-07T19:02:17.632Z,6.20
2018-03-07T19:04:47.503Z,6.10
2018-03-07T19:07:15.648Z,6.10
2018-03-07T19:09:46.732Z,6.00
2018-03-07T19:12:14.858Z,6.00
2018-03-07T19:14:42.999Z,6.00
2018-03-07T19:17:11.128Z,6.10
2018-03-07T19:19:40.042Z,6.00
2018-03-07T19:22:08.167Z,6.00
2018-03-07T19:24:36.309Z,6.10
2018-03-07T19:27:04.429Z,5.90
2018-03-07T19:29:32.585Z,6.00
2018-03-07T19:32:00.711Z,5.90
2018-03-07T19:34:28.844Z,6.10
2018-03-07T19:36:57.015Z,6.10
2018-03-07T19:39:25.169Z,6.10
2018-03-07T19:41:53.281Z,6.00
2018-03-07T19:44:22.203Z,5.90
2018-03-07T19:46:50.355Z,5.90
2018-03-07T19:49:19.252Z,6.10
2018-03-07T19:51:47.385Z,6.10
2018-03-07T19:54:15.784Z,6.10
2018-03-07T19:56:44.370Z,6.10
2018-03-07T19:59:13.317Z,6.30
2018-03-07T20:01:41.456Z,6.20
2018-03-07T20:04:09.697Z,6.20
2018-03-07T20:06:37.922Z,6.20
2018-03-07T20:09:06.053Z,6.10
2018-03-07T20:11:34.975Z,6.00
2018-03-07T20:14:03.134Z,6.00
2018-03-07T20:16:31.763Z,6.10
2018-03-07T20:18:59.927Z,6.10
2018-03-07T20:21:28.096Z,6.10
2018-03-07T20:23:56.331Z,6.00
2018-03-07T20:26:24.489Z,6.00
2018-03-07T20:28:52.945Z,6.00
2018-03-07T20:31:21.940Z,5.90
2018-03-07T20:33:50.070Z,5.90
2018-03-07T20:36:18.331Z,5.90
2018-03-07T20:38:47.641Z,5.90
2018-03-07T20:41:16.854Z,5.80
2018-03-07T20:43:45.020Z,5.80
2018-03-07T20:46:14.063Z,5.80
2018-03-07T20:48:42.185Z,5.80
2018-03-07T20:51:11.285Z,5.80
2018-03-07T20:53:39.526Z,5.80
2018-03-07T20:56:07.698Z,5.70
2018-03-07T20:58:35.908Z,5.80
2018-03-07T21:01:04.837Z,5.90
2018-03-07T21:03:32.956Z,5.90
2018-03-07T21:06:01.313Z,5.80
2018-03-07T21:08:29.689Z,5.90
2018-03-07T21:10:57.961Z,5.90
2018-03-07T21:13:26.081Z,6.00
2018-03-07T21:15:55.144Z,5.90
2018-03-07T21:18:23.354Z,5.90
2018-03-07T21:20:52.256Z,6.10
2018-03-07T21:23:21.152Z,6.20
2018-03-07T21:25:49.309Z,6.20
2018-03-07T21:28:17.626Z,6.20
2018-03-07T21:30:45.778Z,5.90
2018-03-07T21:33:13.916Z,5.90
2018-03-07T21:35:42.049Z,6.00
2018-03-07T21:38:10.778Z,6.00
2018-03-07T21:40:38.919Z,6.10
2018-03-07T21:43:07.804Z,6.20
2018-03-07T21:45:35.956Z,6.20
2018-03-07T21:48:04.073Z,6.20
2018-03-07T21:50:32.266Z,6.20
2018-03-07T21:53:00.380Z,6.20
2018-03-07T21:55:28.521Z,6.20
2018-03-07T21:57:56.675Z,6.30
2018-03-07T22:00:24.834Z,6.20
2018-03-07T22:02:53.891Z,6.30
2018-03-07T22:05:22.038Z,6.10
2018-03-07T22:07:50.979Z,6.20
2018-03-07T22:10:19.126Z,6.20
2018-03-07T22:12:47.245Z,6.10
2018-03-07T22:15:15.401Z,6.10
2018-03-07T22:17:43.530Z,6.20
2018-03-07T22:20:12.433Z,6.10
2018-03-07T22:22:40.563Z,6.10
2018-03-07T22:25:08.724Z,6.10
2018-03-07T22:27:36.836Z,6.10
2018-03-07T22:30:05.294Z,6.10
2018-03-07T22:32:34.318Z,6.20
2018-03-07T22:35:03.199Z,6.30
2018-03-07T22:37:32.096Z,6.40
2018-03-07T22:40:00.968Z,6.60
2018-03-07T22:42:29.109Z,6.60
2018-03-07T22:44:57.989Z,6.90
2018-03-07T22:47:26.121Z,6.80
2018-03-07T22:49:55.061Z,6.80
2018-03-07T22:52:23.253Z,6.80
2018-03-07T22:54:51.398Z,6.80
2018-03-07T22:57:19.537Z,6.70
2018-03-07T22:59:48.420Z,6.70
2018-03-07T23:02:16.594Z,6.70
2018-03-07T23:04:44.714Z,6.70
2018-03-07T23:07:13.562Z,6.70
2018-03-07T23:09:42.621Z,6.80
2018-03-07T23:12:10.773Z,6.80
2018-03-07T23:14:38.893Z,6.90
2018-03-07T23:17:07.037Z,7.10
2018-03-07T23:19:35.956Z,7.00
2018-03-07T23:22:04.140Z,7.00
2018-03-07T23:24:33.041Z,7.20
2018-03-07T23:27:01.686Z,7.10
2018-03-07T23:29:29.804Z,7.10
2018-03-07T23:31:58.726Z,6.70
2018-03-07T23:34:26.851Z,6.70
2018-03-07T23:36:54.996Z,6.80
2018-03-07T23:39:23.115Z,6.80
2018-03-07T23:41:52.084Z,6.80
2018-03-07T23:44:20.208Z,6.80
2018-03-07T23:46:48.355Z,6.80
2018-03-07T23:49:17.241Z,6.70
2018-03-07T23:51:45.434Z,6.70
2018-03-07T23:54:13.973Z,7.00
2018-03-07T23:56:42.116Z,6.90
2018-03-07T23:59:10.241Z,6.80
